Time;durP1;ratioP1;P1;durP2;ratioP2;P2;SDS_P1;SDS_P2;PMS_P1;PMS_P2;Temp;Humidity;BMP_temperature;BMP_pressure;BME280_temperature;BME280_humidity;BME280_pressure;Samples;Min_cycle;Max_cycle;Signal;HPM_P1;HPM_P2
2021/10/13 05:17:07;;;;;;;46.15;29.00;;;;;;;4.09;99.93;97770.09;1827325;78;20951;-58
2021/10/13 05:19:34;;;;;;;33.73;22.60;;;;;;;4.12;99.96;97771.44;1827091;78;21122;-62
2021/10/13 05:22:01;;;;;;;29.15;19.60;;;;;;;4.18;99.93;97774.39;1826342;78;21537;-62
2021/10/13 05:24:28;;;;;;;26.70;17.77;;;;;;;4.23;99.89;97779.73;1826282;78;20876;-59
2021/10/13 05:26:56;;;;;;;25.37;18.12;;;;;;;4.34;99.95;97776.61;1818085;77;20916;-59
2021/10/13 05:29:23;;;;;;;24.47;18.73;;;;;;;4.46;99.96;97778.55;1827692;78;20905;-62
2021/10/13 05:31:50;;;;;;;31.40;19.27;;;;;;;4.62;99.97;97778.38;1795602;78;21160;-62
2021/10/13 05:34:17;;;;;;;24.55;19.02;;;;;;;4.79;99.89;97784.84;1795270;80;20899;-58
2021/10/13 05:36:43;;;;;;;25.92;18.55;;;;;;;4.92;99.57;97792.88;1815439;78;21600;-62
2021/10/13 05:39:11;;;;;;;25.62;18.52;;;;;;;5.01;99.47;97797.44;1827529;78;20900;-60
2021/10/13 05:41:37;;;;;;;27.25;19.00;;;;;;;5.11;99.30;97796.13;1826962;78;20903;-62
2021/10/13 05:44:04;;;;;;;23.75;19.85;;;;;;;5.23;99.14;97799.36;1828049;78;21444;-59
2021/10/13 05:46:31;;;;;;;26.40;18.90;;;;;;;5.33;99.04;97796.75;1826979;78;20860;-60
2021/10/13 05:48:58;;;;;;;29.35;20.48;;;;;;;5.44;98.73;97797.04;1826562;78;21280;-59
2021/10/13 05:51:24;;;;;;;32.23;21.50;;;;;;;5.51;98.50;97789.63;1827492;78;21004;-58
2021/10/13 05:53:52;;;;;;;30.97;20.37;;;;;;;5.58;98.27;97793.91;1827671;78;21371;-61
2021/10/13 05:56:19;;;;;;;29.65;21.05;;;;;;;5.65;98.06;97800.56;1827739;78;21112;-59
2021/10/13 05:58:47;;;;;;;26.00;19.48;;;;;;;5.75;97.89;97811.19;1827745;77;21482;-62
2021/10/13 06:01:18;;;;;;;32.08;21.80;;;;;;;5.84;97.68;97811.49;1795069;80;20920;-61
2021/10/13 06:03:42;;;;;;;31.27;21.00;;;;;;;5.92;97.54;97817.62;1798738;78;20982;-58
2021/10/13 06:06:09;;;;;;;32.13;21.62;;;;;;;6.00;97.22;97814.46;1828042;78;21379;-60
2021/10/13 06:08:35;;;;;;;25.95;20.20;;;;;;;6.05;96.90;97815.24;1822331;78;21093;-60
2021/10/13 06:11:03;;;;;;;29.25;21.45;;;;;;;6.07;96.66;97812.34;1814072;78;20908;-65
2021/10/13 06:13:30;;;;;;;38.28;24.70;;;;;;;6.13;96.46;97820.57;1821998;78;20924;-63
2021/10/13 06:15:57;;;;;;;43.75;27.95;;;;;;;6.22;96.36;97823.52;1813451;79;20963;-58
2021/10/13 06:18:24;;;;;;;44.65;28.62;;;;;;;6.33;96.13;97831.23;1815148;79;21058;-60
2021/10/13 06:20:52;;;;;;;43.40;29.57;;;;;;;6.44;95.85;97839.47;1806848;79;21462;-62
2021/10/13 06:23:19;;;;;;;40.75;27.82;;;;;;;6.53;95.54;97841.84;1816415;78;20903;-61
2021/10/13 06:25:46;;;;;;;41.83;29.40;;;;;;;6.61;95.14;97841.31;1815895;78;21403;-62
2021/10/13 06:28:12;;;;;;;46.28;28.57;;;;;;;6.66;94.79;97846.64;1794038;79;21007;-63
2021/10/13 06:30:42;;;;;;;43.10;27.32;;;;;;;6.73;94.38;97845.83;1788836;77;20861;-61
2021/10/13 06:33:07;;;;;;;40.38;26.70;;;;;;;6.77;93.96;97843.41;1791211;79;21032;-60
2021/10/13 06:35:35;;;;;;;39.35;29.75;;;;;;;6.82;93.64;97839.41;1801035;77;21121;-58
2021/10/13 06:38:02;;;;;;;40.92;29.92;;;;;;;6.87;93.19;97833.56;1795694;79;20966;-58
2021/10/13 06:40:29;;;;;;;41.08;27.20;;;;;;;6.87;92.61;97832.75;1797865;79;21685;-60
2021/10/13 06:42:55;;;;;;;44.18;28.90;;;;;;;6.87;92.33;97828.23;1805461;77;20884;-58
2021/10/13 06:45:22;;;;;;;47.50;29.60;;;;;;;6.97;92.18;97826.61;1803357;78;21170;-59
2021/10/13 06:47:48;;;;;;;42.75;30.90;;;;;;;7.09;92.01;97833.77;1798199;79;20884;-61
2021/10/13 06:50:15;;;;;;;50.98;32.67;;;;;;;7.13;91.44;97836.95;1815827;78;20935;-62
2021/10/13 06:52:44;;;;;;;53.05;32.88;;;;;;;7.10;90.96;97846.00;1815939;79;20884;-61
2021/10/13 06:55:11;;;;;;;43.08;31.52;;;;;;;7.02;90.69;97849.23;1815743;79;20954;-60
2021/10/13 06:57:38;;;;;;;38.15;28.83;;;;;;;7.05;90.75;97846.01;1815831;79;21086;-61
2021/10/13 07:00:06;;;;;;;37.48;28.92;;;;;;;7.18;90.76;97849.45;1815925;79;21036;-58
2021/10/13 07:02:33;;;;;;;38.88;27.58;;;;;;;7.35;90.52;97844.56;1816167;78;21561;-61
2021/10/13 07:04:59;;;;;;;30.27;24.82;;;;;;;7.56;90.04;97843.41;1815909;79;20886;-62
2021/10/13 07:07:26;;;;;;;32.65;24.18;;;;;;;7.60;89.17;97840.48;1815950;79;21403;-60
2021/10/13 07:09:53;;;;;;;32.28;23.27;;;;;;;7.67;88.81;97851.64;1815872;78;21126;-62
2021/10/13 07:12:20;;;;;;;34.15;23.57;;;;;;;7.70;88.08;97848.41;1815767;78;20865;-59
2021/10/13 07:14:47;;;;;;;28.20;22.82;;;;;;;7.69;87.89;97841.49;1815739;78;20869;-62
2021/10/13 07:17:14;;;;;;;27.30;21.65;;;;;;;7.79;87.71;97838.78;1816074;79;21443;-61
2021/10/13 07:19:42;;;;;;;29.95;23.15;;;;;;;7.88;87.38;97845.13;1815771;78;20865;-60
2021/10/13 07:22:08;;;;;;;28.75;22.37;;;;;;;7.92;86.87;97859.48;1804247;78;21043;-61
2021/10/13 07:24:35;;;;;;;25.85;21.93;;;;;;;7.91;86.44;97863.25;1804665;79;20892;-60
2021/10/13 07:27:02;;;;;;;32.28;24.07;;;;;;;7.94;86.16;97857.34;1790572;77;20968;-60
2021/10/13 07:29:29;;;;;;;34.05;23.62;;;;;;;8.01;85.82;97867.69;1816811;77;20857;-62
2021/10/13 07:31:55;;;;;;;30.50;23.22;;;;;;;8.10;85.46;97870.83;1820937;78;21473;-61
2021/10/13 07:34:22;;;;;;;35.05;26.25;;;;;;;8.11;85.13;97875.11;1825263;78;21093;-60
2021/10/13 07:36:49;;;;;;;38.05;27.13;;;;;;;8.08;84.91;97878.32;1811252;78;21226;-62
2021/10/13 07:39:16;;;;;;;38.48;28.35;;;;;;;7.95;84.59;97875.48;1814507;78;20965;-59
2021/10/13 07:41:43;;;;;;;33.18;25.45;;;;;;;7.75;84.55;97883.04;1812095;78;21009;-62
2021/10/13 07:44:10;;;;;;;23.02;19.23;;;;;;;7.57;84.73;97889.00;1808602;78;21031;-60
2021/10/13 07:46:37;;;;;;;23.90;18.77;;;;;;;7.44;84.61;97884.27;1807851;79;21074;-64
2021/10/13 07:49:04;;;;;;;25.20;18.50;;;;;;;7.28;84.48;97874.70;1814514;78;21006;-61
2021/10/13 07:51:31;;;;;;;22.93;19.32;;;;;;;7.16;84.64;97875.56;1813938;78;21379;-64
2021/10/13 07:53:58;;;;;;;20.55;16.55;;;;;;;7.07;84.94;97875.83;1814172;79;21039;-65
2021/10/13 07:56:25;;;;;;;20.88;16.55;;;;;;;6.99;84.96;97880.39;1815774;79;20880;-62
2021/10/13 07:58:53;;;;;;;22.22;18.70;;;;;;;6.92;85.02;97882.00;1815907;79;21052;-62
2021/10/13 08:01:19;;;;;;;23.77;19.12;;;;;;;6.88;85.17;97876.41;1815719;79;20857;-64
2021/10/13 08:03:46;;;;;;;22.60;18.40;;;;;;;6.87;85.27;97874.83;1816116;79;20963;-61
2021/10/13 08:06:13;;;;;;;24.65;19.52;;;;;;;6.96;85.41;97879.06;1815658;79;20940;-62
2021/10/13 08:08:40;;;;;;;23.02;17.30;;;;;;;7.13;85.25;97877.42;1803378;77;20868;-61
2021/10/13 08:11:08;;;;;;;23.02;17.35;;;;;;;7.34;85.07;97886.42;1783662;79;21400;-60
2021/10/13 08:13:36;;;;;;;27.85;22.52;;;;;;;7.59;85.01;97879.66;1784771;77;20881;-61
2021/10/13 08:16:04;;;;;;;32.90;25.72;;;;;;;7.88;84.62;97884.31;1815712;78;20951;-61
2021/10/13 08:18:32;;;;;;;33.67;24.37;;;;;;;8.05;83.95;97884.23;1815525;79;21088;-63
2021/10/13 08:20:59;;;;;;;33.05;23.83;;;;;;;8.25;83.56;97882.75;1815674;79;21438;-63
2021/10/13 08:23:26;;;;;;;40.05;27.10;;;;;;;8.45;83.12;97883.19;1815673;79;21116;-63
2021/10/13 08:25:55;;;;;;;38.53;26.97;;;;;;;8.65;82.82;97890.21;1815610;79;21035;-61
2021/10/13 08:28:22;;;;;;;34.40;27.05;;;;;;;8.83;82.23;97893.55;1815489;79;20900;-62
2021/10/13 08:33:30;;;;;;;32.25;24.72;;;;;;;9.08;80.92;97889.29;1806431;78;20991;-61
2021/10/13 08:35:58;;;;;;;32.38;24.55;;;;;;;9.27;80.71;97891.50;1806377;79;21097;-64
2021/10/13 08:38:24;;;;;;;33.48;27.17;;;;;;;9.41;79.79;97896.42;1806315;79;20881;-63
2021/10/13 08:40:52;;;;;;;35.05;27.05;;;;;;;9.49;79.07;97895.00;1797405;79;21027;-61
2021/10/13 08:43:18;;;;;;;39.42;26.12;;;;;;;9.52;78.42;97891.20;1790758;79;20960;-65
2021/10/13 08:45:45;;;;;;;35.48;25.85;;;;;;;9.57;77.95;97883.13;1783691;79;21043;-61
2021/10/13 08:48:12;;;;;;;36.23;25.68;;;;;;;9.68;77.42;97888.36;1807867;79;21163;-61
2021/10/13 08:50:49;;;;;;;36.35;27.65;;;;;;;9.80;77.54;97878.81;1806050;79;21077;-63
2021/10/13 08:53:21;;;;;;;34.48;27.80;;;;;;;9.95;76.98;97885.85;1804458;79;21106;-62
2021/10/13 08:55:48;;;;;;;35.70;25.02;;;;;;;10.07;76.68;97883.55;1806398;79;20954;-62
2021/10/13 08:58:23;;;;;;;29.55;21.70;;;;;;;10.18;76.09;97886.35;1809956;79;21093;-64
2021/10/13 09:00:51;;;;;;;;;;;;;;;10.28;75.98;97887.55;1812087;79;21502;-62
2021/10/13 09:03:31;;;;;;;31.30;23.55;;;;;;;10.41;75.21;97887.38;1782497;79;20178;-61
2021/10/13 09:05:59;;;;;;;31.23;22.48;;;;;;;10.53;75.12;97884.48;1810387;79;20895;-59
2021/10/13 09:08:26;;;;;;;23.18;20.70;;;;;;;10.71;74.61;97885.01;1810263;79;21022;-62
2021/10/13 09:10:55;;;;;;;27.37;20.43;;;;;;;10.85;73.81;97891.73;1810584;79;21059;-63
2021/10/13 09:13:21;;;;;;;24.77;19.65;;;;;;;10.92;72.88;97895.63;1810429;79;21696;-62
2021/10/13 09:15:54;;;;;;;26.77;20.20;;;;;;;11.00;72.20;97898.95;1809804;79;20985;-61
2021/10/13 09:18:22;;;;;;;20.52;15.60;;;;;;;11.07;71.75;97897.23;1810379;79;21009;-63
2021/10/13 09:20:51;;;;;;;14.95;12.53;;;;;;;11.15;70.94;97899.78;1810774;79;20934;-59
2021/10/13 09:23:30;;;;;;;16.40;12.05;;;;;;;11.22;70.12;97898.84;1811293;79;20875;-61
2021/10/13 09:26:11;;;;;;;14.85;10.55;;;;;;;11.29;69.28;97899.25;1812366;79;21876;-61
2021/10/13 09:28:38;;;;;;;12.45;10.43;;;;;;;11.29;67.76;97905.95;1811300;79;21041;-62
2021/10/13 09:31:18;;;;;;;12.65;10.18;;;;;;;11.29;67.65;97915.34;1812071;79;20989;-65
2021/10/13 09:34:03;;;;;;;13.30;10.53;;;;;;;11.30;66.88;97911.58;1812558;79;20919;-64
2021/10/13 09:36:39;;;;;;;9.68;8.50;;;;;;;11.32;66.91;97909.39;1813037;79;20883;-59
2021/10/13 09:39:13;;;;;;;12.23;10.55;;;;;;;11.36;66.29;97902.33;1812928;79;21110;-60
2021/10/13 09:42:08;;;;;;;10.38;8.15;;;;;;;11.36;65.90;97902.33;1812685;79;20860;-60
2021/10/13 09:44:39;;;;;;;10.60;9.43;;;;;;;11.38;65.29;97896.13;1812852;79;21332;-64
2021/10/13 09:47:11;;;;;;;13.55;10.48;;;;;;;11.40;65.46;97893.97;1812838;79;20904;-62
2021/10/13 09:49:42;;;;;;;13.72;11.40;;;;;;;11.43;64.87;97897.37;1812872;79;20963;-61
2021/10/13 09:52:17;;;;;;;13.88;11.53;;;;;;;11.42;64.08;97893.89;1810918;79;21709;-62
2021/10/13 09:54:46;;;;;;;14.98;10.85;;;;;;;11.41;64.41;97890.17;1812522;79;21056;-65
2021/10/13 09:57:24;;;;;;;15.10;11.45;;;;;;;11.43;63.90;97887.98;1815218;79;21447;-65
2021/10/13 10:00:14;;;;;;;13.53;11.55;;;;;;;11.44;63.92;97886.37;1815151;79;20880;-61
2021/10/13 10:02:42;;;;;;;14.05;10.82;;;;;;;11.42;63.81;97891.20;1807309;79;20841;-66
2021/10/13 10:05:19;;;;;;;12.30;10.23;;;;;;;11.39;64.15;97888.34;1782764;80;20993;-61
2021/10/13 10:08:07;;;;;;;13.05;10.65;;;;;;;11.44;64.59;97885.56;1783825;79;20917;-64
2021/10/13 10:10:36;;;;;;;11.25;9.73;;;;;;;11.56;64.29;97888.55;1808016;79;21019;-63
2021/10/13 10:13:10;;;;;;;15.23;12.33;;;;;;;11.58;63.05;97895.75;1814734;79;20990;-65
2021/10/13 10:15:44;;;;;;;14.90;12.28;;;;;;;11.49;63.04;97890.27;1812540;79;21097;-64
2021/10/13 10:18:38;;;;;;;12.15;10.68;;;;;;;11.47;63.80;97897.05;1814785;79;21109;-60
2021/10/13 10:21:24;;;;;;;11.48;10.10;;;;;;;11.53;63.37;97899.86;1815124;79;20919;-64
2021/10/13 10:24:14;;;;;;;13.95;10.48;;;;;;;11.60;63.10;97888.19;1805110;79;20880;-62
2021/10/13 10:26:41;;;;;;;16.15;12.20;;;;;;;11.65;62.91;97891.58;1787451;79;20955;-62
2021/10/13 10:29:13;;;;;;;16.65;11.48;;;;;;;11.72;62.89;97884.49;1759437;80;21403;-65
2021/10/13 10:31:43;;;;;;;14.05;8.90;;;;;;;11.82;63.51;97888.31;1782276;80;21780;-64
2021/10/13 10:34:13;;;;;;;11.15;9.73;;;;;;;11.92;61.43;97877.88;1782933;80;20908;-66
2021/10/13 10:36:47;;;;;;;10.32;8.65;;;;;;;11.99;61.64;97880.41;1777682;80;20963;-61
2021/10/13 10:39:18;;;;;;;11.45;7.97;;;;;;;12.09;61.44;97882.88;1779984;80;20919;-60
2021/10/13 10:41:53;;;;;;;11.50;8.15;;;;;;;12.19;60.02;97888.03;1782063;79;20832;-63
2021/10/13 10:44:42;;;;;;;12.73;8.78;;;;;;;12.23;59.87;97886.87;1802962;79;21117;-58
2021/10/13 10:47:12;;;;;;;11.83;8.35;;;;;;;12.26;59.82;97894.33;1804038;79;20998;-61
2021/10/13 10:49:56;;;;;;;12.10;7.90;;;;;;;12.34;59.92;97893.62;1806894;79;20904;-64
2021/10/13 10:52:26;;;;;;;10.65;8.05;;;;;;;12.41;59.09;97897.22;1806935;79;21533;-60
2021/10/13 10:55:06;;;;;;;9.63;6.90;;;;;;;12.43;57.89;97887.77;1785836;79;21431;-63
2021/10/13 10:57:47;;;;;;;9.53;6.37;;;;;;;12.50;58.39;97888.67;1780534;79;21097;-61
2021/10/13 11:00:28;;;;;;;8.18;5.58;;;;;;;12.61;58.42;97884.64;1780908;79;21033;-65
2021/10/13 11:03:22;;;;;;;10.20;6.40;;;;;;;12.79;57.22;97895.20;1780532;80;21381;-60
2021/10/13 11:05:48;;;;;;;6.33;5.50;;;;;;;12.94;57.15;97896.72;1788588;79;21000;-63
2021/10/13 11:08:16;;;;;;;8.53;6.10;;;;;;;13.10;56.11;97899.29;1757639;80;20892;-63
2021/10/13 11:10:42;;;;;;;9.23;6.25;;;;;;;13.21;55.49;97891.22;1781067;80;21075;-63
2021/10/13 11:13:09;;;;;;;10.53;7.95;;;;;;;13.39;54.97;97897.45;1779740;80;20971;-61
2021/10/13 11:15:41;;;;;;;9.40;7.35;;;;;;;13.42;54.44;97886.89;1780591;80;20873;-62
2021/10/13 11:18:17;;;;;;;10.53;6.28;;;;;;;13.42;55.16;97888.23;1780601;80;20931;-61
2021/10/13 11:20:46;;;;;;;7.75;6.33;;;;;;;13.54;53.72;97887.64;1780618;80;20916;-61
2021/10/13 11:23:13;;;;;;;10.48;6.58;;;;;;;13.50;53.73;97879.38;1780796;80;21732;-65
2021/10/13 11:25:40;;;;;;;8.93;6.60;;;;;;;13.33;54.47;97884.69;1780073;80;20931;-59
2021/10/13 11:28:11;;;;;;;10.25;5.72;;;;;;;13.20;54.49;97882.90;1779991;80;20966;-60
2021/10/13 11:30:40;;;;;;;8.50;5.45;;;;;;;12.97;54.10;97884.02;1779309;80;21050;-58
2021/10/13 11:33:09;;;;;;;8.73;5.37;;;;;;;12.69;53.84;97877.20;1780361;80;21474;-61
2021/10/13 11:35:36;;;;;;;7.20;5.50;;;;;;;12.59;55.20;97880.92;1784017;80;21663;-60
2021/10/13 11:38:04;;;;;;;8.63;5.80;;;;;;;12.75;54.62;97883.48;1757686;81;21400;-62
2021/10/13 11:40:32;;;;;;;8.85;6.17;;;;;;;12.90;53.42;97880.43;1757705;81;20954;-62
2021/10/13 11:43:08;;;;;;;8.30;6.10;;;;;;;12.90;53.06;97882.31;1756716;81;21042;-63
2021/10/13 11:45:35;;;;;;;6.67;5.33;;;;;;;12.73;53.33;97878.97;1757348;81;21430;-60
2021/10/13 11:48:03;;;;;;;7.67;4.80;;;;;;;12.44;53.35;97879.94;1757483;81;21115;-63
2021/10/13 11:50:31;;;;;;;7.60;4.95;;;;;;;12.16;53.16;97879.78;1757472;81;21494;-60
2021/10/13 11:52:59;;;;;;;8.78;5.55;;;;;;;11.94;53.70;97877.83;1756764;81;21019;-60
2021/10/13 11:55:29;;;;;;;7.37;5.95;;;;;;;11.98;54.35;97878.04;1757679;81;20844;-61
2021/10/13 11:57:59;;;;;;;8.98;6.50;;;;;;;12.04;54.76;97876.28;1757742;81;20915;-62
2021/10/13 12:00:28;;;;;;;10.10;6.20;;;;;;;12.04;55.15;97880.30;1757992;81;21088;-60
2021/10/13 12:03:07;;;;;;;8.18;6.37;;;;;;;11.94;55.59;97880.52;1757657;81;20891;-61
2021/10/13 12:05:40;;;;;;;10.60;6.97;;;;;;;11.84;56.15;97887.47;1744709;81;20919;-59
2021/10/13 12:08:16;;;;;;;8.63;6.55;;;;;;;11.63;56.86;97888.95;1754105;81;20930;-62
2021/10/13 12:10:49;;;;;;;8.18;6.40;;;;;;;11.43;57.98;97894.69;1720492;83;21391;-59
2021/10/13 12:13:28;;;;;;;9.35;6.97;;;;;;;11.29;58.82;97895.23;1727731;83;21128;-61
2021/10/13 12:16:00;;;;;;;16.60;7.95;;;;;;;11.24;59.38;97902.02;1703029;83;20838;-59
2021/10/13 12:18:30;;;;;;;13.68;7.95;;;;;;;11.43;59.93;97895.49;1727732;83;20906;-59
2021/10/13 12:21:10;;;;;;;9.00;7.72;;;;;;;11.75;59.59;97894.63;1740298;81;20926;-63
2021/10/13 12:23:44;;;;;;;12.50;8.00;;;;;;;12.01;58.62;97894.89;1751118;80;21014;-60
2021/10/13 12:26:16;;;;;;;11.22;7.95;;;;;;;12.22;57.86;97895.47;1750713;80;21850;-60
2021/10/13 12:28:44;;;;;;;10.68;7.28;;;;;;;12.27;56.98;97888.64;1769916;80;20976;-63
2021/10/13 12:31:16;;;;;;;17.05;11.08;;;;;;;12.41;57.07;97889.16;1763845;80;20943;-59
2021/10/13 12:33:53;;;;;;;25.12;15.18;;;;;;;12.55;55.90;97886.67;1763800;80;20971;-62
